WEATHER/FLIGHT PLANNING

Hattiesburg Radar

 

 

 

 

Weather Links

Flight Planning Links

 

METAR

2019/01/17 05:53 KHBG 170553Z AUTO 00000KT 10SM CLR 04/03 A3026 RMK AO2 SLP245 T00440028 10111 20044 401670006 58004 $

TAF

2019/01/17 06:06 TAF KHBG 170603Z 1706/1806 20003KT P6SM FEW040 FM171300 18004KT P6SM VCSH BKN025 FM171700 18008KT P6SM OVC015 FM180400 19004KT 5SM BR OVC007